Latest Weather Observations for Gosford

IDN60901

Issued at 8:45 pm EDT Sunday 21 December 2014 (issued every 10 minutes, with the page automatically refreshed every 10 minutes)

About weather observations | Map of Sydney area stations | Latest observations for Sydney area | Other Formats
Station Details ID: 061425 Name: GOSFORD AWS Lat: -33.44 Lon: 151.36 Height: 7.0 m
Data from the previous 72 hours. | See also: Recent months at Gosford
Date/Time
EDT
Tmp

°C
App
Tmp
°C
Dew
Point
°C
Rel
Hum
%
Delta-T

°C
Wind Press
QNH
hPa
Press
MSL
hPa
Rain
since
9 am
mm
Dir
 
Spd
km/h
Gust
km/h
Spd
kts
Gust
kts
21/08:30pm 22.0 22.0 18.0 78 2.5 NE 15 30 8 16 - - 0.0
21/08:00pm 22.2 21.8 18.0 77 2.6 NE 17 32 9 17 - - 0.0
21/07:30pm 22.7 22.7 18.0 75 2.9 ENE 15 24 8 13 - - 0.0
21/07:00pm 23.1 22.7 18.0 73 3.2 ENE 17 30 9 16 - - 0.0
21/06:30pm 23.5 22.5 17.9 71 3.5 ENE 20 30 11 16 - - 0.0
21/06:00pm 23.9 22.6 18.1 70 3.6 ENE 22 37 12 20 - - 0.0
21/05:30pm 24.7 24.1 18.4 68 4.0 ENE 19 32 10 17 - - 0.0
21/05:00pm 24.6 23.1 17.6 65 4.4 ENE 22 33 12 18 - - 0.0
21/04:30pm 25.2 24.0 17.4 62 4.9 NE 20 33 11 18 - - 0.0
21/04:00pm 25.3 23.5 17.0 60 5.1 ENE 22 32 12 17 - - 0.0
21/03:30pm 26.0 25.6 17.1 58 5.5 NE 15 28 8 15 - - 0.0
21/03:00pm 25.6 24.3 16.7 58 5.5 ENE 19 26 10 14 - - 0.0
21/02:30pm 25.6 24.1 16.7 58 5.5 NE 20 30 11 16 - - 0.0
21/02:00pm 26.3 25.5 17.9 60 5.3 ENE 19 28 10 15 - - 0.0
21/01:30pm 25.8 24.9 17.7 61 5.1 E 19 28 10 15 - - 0.0
21/01:00pm 25.9 25.3 17.5 59 5.3 E 17 28 9 15 - - 0.0
21/12:30pm 25.6 25.1 17.0 59 5.3 ENE 15 24 8 13 - - 0.0
21/12:00pm 25.3 24.7 16.7 59 5.3 ENE 15 22 8 12 - - 0.0
21/11:30am 24.8 24.3 16.8 61 4.9 ENE 15 20 8 11 - - 0.0
21/11:00am 24.5 24.2 16.5 61 4.9 ENE 13 22 7 12 - - 0.0
21/10:30am 24.0 22.8 16.0 61 4.9 ENE 17 24 9 13 - - 0.0
21/10:00am 24.2 23.2 16.7 63 4.6 NE 17 24 9 13 - - 0.0
21/09:30am 24.3 24.4 16.6 62 4.7 NNE 11 22 6 12 - - 0.0
21/09:00am 23.0 24.4 16.5 67 4.0 N 4 13 2 7 - - 0.0
21/08:30am 21.6 23.0 16.3 72 3.2 S 4 6 2 3 - - 0.0
21/08:00am 21.0 22.5 15.8 72 3.1 SSW 2 4 1 2 - - 0.0
21/07:30am 19.1 20.4 15.2 78 2.3 SE 2 2 1 1 - - 0.0
21/07:00am 17.5 19.2 15.3 87 1.3 CALM 0 0 0 0 - - 0.0
21/06:30am 15.0 16.2 13.9 93 0.6 CALM 0 0 0 0 - - 0.0
21/06:00am 14.1 15.0 13.0 93 0.6 CALM 0 0 0 0 - - 0.0
21/05:30am 14.0 14.9 12.9 93 0.6 CALM 0 0 0 0 - - 0.0
21/05:00am 14.2 15.2 13.1 93 0.6 CALM 0 0 0 0 - - 0.0
21/04:30am 14.4 15.4 13.3 93 0.6 CALM 0 0 0 0 - - 0.0
21/04:00am 14.6 15.6 13.3 92 0.7 CALM 0 0 0 0 - - 0.0
21/03:30am 14.7 15.7 13.2 91 0.8 CALM 0 0 0 0 - - 0.0
21/03:00am 14.9 16.0 13.4 91 0.8 CALM 0 0 0 0 - - 0.0
21/02:30am 15.1 16.2 13.6 91 0.8 CALM 0 0 0 0 - - 0.0
21/02:00am 15.3 16.3 13.3 88 1.1 CALM 0 0 0 0 - - 0.0
21/01:30am 15.6 16.8 13.8 89 1.0 CALM 0 0 0 0 - - 0.0
21/01:00am 15.7 16.8 13.5 87 1.2 CALM 0 0 0 0 - - 0.0
21/12:30am 16.1 17.3 13.8 86 1.3 CALM 0 0 0 0 - - 0.0
21/12:00am 16.3 17.5 13.8 85 1.4 CALM 0 0 0 0 - - 0.0
 
Date/Time
EDT
Tmp

°C
App
Tmp
°C
Dew
Point
°C
Rel
Hum
%
Delta-T

°C
Wind Press
QNH
hPa
Press
MSL
hPa
Rain
since
9 am
mm
Dir
 
Spd
km/h
Gust
km/h
Spd
kts
Gust
kts
20/11:30pm 16.7 17.8 13.6 82 1.7 CALM 0 0 0 0 - - 0.0
20/11:00pm 17.0 18.0 13.3 79 2.1 CALM 0 2 0 1 - - 0.0
20/10:30pm 17.8 18.6 13.7 77 2.3 NE 2 4 1 2 - - 0.0
20/10:00pm 18.4 18.8 13.7 74 2.7 NE 4 6 2 3 - - 0.0
20/09:30pm 18.5 18.3 13.1 71 3.0 ENE 6 7 3 4 - - 0.0
20/09:00pm 18.7 18.5 13.1 70 3.2 ENE 6 7 3 4 - - 0.0
20/08:30pm 19.2 19.1 13.2 68 3.4 NE 6 7 3 4 - - 0.0
20/08:00pm 19.7 19.5 12.9 65 3.8 ENE 6 9 3 5 - - 0.0
20/07:30pm 20.5 19.7 13.0 62 4.3 ENE 9 17 5 9 - - 0.0
20/07:00pm 21.1 19.5 12.8 59 4.7 ENE 13 19 7 10 - - 0.0
20/06:30pm 21.5 19.8 12.6 57 5.0 E 13 20 7 11 - - 0.0
20/06:00pm 21.7 20.0 12.5 56 5.2 E 13 20 7 11 - - 0.0
20/05:30pm 21.8 19.8 12.6 56 5.2 E 15 24 8 13 - - 0.0
20/05:00pm 22.0 19.5 12.3 54 5.5 ENE 17 32 9 17 - - 0.0
20/04:30pm 22.4 19.5 12.4 53 5.7 E 19 24 10 13 - - 0.0
20/04:00pm 22.3 19.8 12.3 53 5.7 E 17 28 9 15 - - 0.0
20/03:30pm 22.0 19.8 12.0 53 5.6 E 15 20 8 11 - - 0.0
20/03:00pm 22.5 20.0 12.4 52 5.7 ESE 17 26 9 14 - - 0.0
20/02:30pm 22.8 20.9 13.0 54 5.6 ESE 15 28 8 15 - - 0.0
20/02:00pm 22.5 20.8 12.4 52 5.7 E 13 22 7 12 - - 0.0
20/01:30pm 22.8 21.0 12.1 51 6.1 E 13 19 7 10 - - 0.0
20/01:00pm 22.1 20.6 11.8 52 5.8 NE 11 20 6 11 - - 0.0
20/12:30pm 23.2 22.1 13.1 53 5.8 ESE 11 20 6 11 - - 0.0
20/12:00pm 21.7 21.1 11.7 53 5.6 ESE 6 13 3 7 - - 0.0
20/11:30am 21.3 20.1 11.6 54 5.4 ESE 9 15 5 8 - - 0.0
20/11:00am 21.6 20.8 11.6 53 5.6 ENE 7 11 4 6 - - 0.0
20/10:30am 20.9 20.0 11.3 54 5.3 E 7 13 4 7 - - 0.0
20/10:00am 21.2 20.5 11.5 54 5.4 SSE 6 11 3 6 - - 0.0
20/09:30am 20.1 20.5 11.3 57 4.8 CALM 0 0 0 0 - - 0.0
20/09:00am 20.5 20.1 11.2 55 5.1 SE 4 6 2 3 - - 0.0
20/08:30am 20.8 20.5 11.4 55 5.2 SE 4 6 2 3 - - 0.0
20/08:00am 20.8 21.0 12.0 57 4.9 SE 2 6 1 3 - - 0.0
20/07:30am 19.9 20.5 11.9 60 4.4 CALM 0 6 0 3 - - 0.0
20/07:00am 17.8 18.5 12.3 70 3.0 CALM 0 0 0 0 - - 0.0
20/06:30am 17.3 18.2 12.8 75 2.5 CALM 0 0 0 0 - - 0.0
20/06:00am 16.7 17.7 13.2 80 2.0 CALM 0 0 0 0 - - 0.0
20/05:30am 16.9 17.7 12.4 75 2.5 CALM 0 0 0 0 - - 0.0
20/05:00am 16.9 17.7 12.6 76 2.4 CALM 0 0 0 0 - - 0.0
20/04:30am 16.9 17.7 12.6 76 2.4 CALM 0 0 0 0 - - 0.0
20/04:00am 17.2 17.9 12.3 73 2.7 CALM 0 2 0 1 - - 0.0
20/03:30am 17.5 17.9 12.6 73 2.7 SSE 2 4 1 2 - - 0.0
20/03:00am 17.6 18.4 12.5 72 2.8 CALM 0 4 0 2 - - 0.0
20/02:30am 17.5 18.2 12.2 71 2.9 CALM 0 0 0 0 - - 0.0
20/02:00am 18.0 18.6 11.8 67 3.4 CALM 0 0 0 0 - - 0.0
20/01:30am 18.4 19.0 11.9 66 3.6 CALM 0 2 0 1 - - 0.0
20/01:00am 18.7 18.5 11.8 64 3.8 SE 4 9 2 5 - - 0.0
20/12:30am 18.9 18.7 11.9 64 3.9 SE 4 9 2 5 - - 0.0
20/12:00am 19.0 18.8 11.8 63 4.0 SSE 4 9 2 5 - - 0.0
 
Date/Time
EDT
Tmp

°C
App
Tmp
°C
Dew
Point
°C
Rel
Hum
%
Delta-T

°C
Wind Press
QNH
hPa
Press
MSL
hPa
Rain
since
9 am
mm
Dir
 
Spd
km/h
Gust
km/h
Spd
kts
Gust
kts
19/11:30pm 19.0 18.4 11.6 62 4.1 SE 6 9 3 5 - - 0.0
19/11:00pm 19.1 18.5 11.7 62 4.1 SE 6 9 3 5 - - 0.0
19/10:30pm 19.1 17.8 11.2 60 4.3 SSE 9 15 5 8 - - 0.0
19/10:00pm 19.2 18.6 11.7 62 4.1 SSE 6 9 3 5 - - 0.0
19/09:30pm 19.2 18.0 11.7 62 4.1 SSE 9 15 5 8 - - 0.0
19/09:00pm 19.1 18.0 11.9 63 4.0 SSE 9 13 5 7 - - 0.0
19/08:30pm 19.1 18.0 12.1 64 3.9 SE 9 15 5 8 - - 0.0
19/08:00pm 19.1 17.6 11.9 63 4.0 SSE 11 17 6 9 - - 0.0
19/07:30pm 19.2 17.3 11.7 62 4.1 SSE 13 20 7 11 - - 0.0
19/07:00pm 19.3 18.2 12.1 63 4.0 SE 9 19 5 10 - - 0.0
19/06:30pm 20.1 17.9 12.1 60 4.5 S 15 28 8 15 - - 0.0
19/06:00pm 20.6 18.9 12.3 59 4.7 SSE 13 20 7 11 - - 0.0
19/05:30pm 20.7 18.6 12.4 59 4.7 SE 15 24 8 13 - - 0.0
19/05:00pm 20.7 18.3 11.3 55 5.2 SSE 15 24 8 13 - - 0.0
19/04:30pm 20.2 18.3 11.7 58 4.7 SE 13 24 7 13 - - 0.0
19/04:00pm 20.2 18.3 11.9 59 4.6 SE 13 24 7 13 - - 0.0
19/03:30pm 20.4 17.8 12.1 59 4.6 SE 17 26 9 14 - - 0.0
19/03:00pm 20.9 18.3 12.1 57 4.9 SSE 17 26 9 14 - - 0.0
19/02:30pm 21.2 19.2 12.6 58 4.9 SSE 15 33 8 18 - - 0.0
19/02:00pm 21.5 18.5 12.1 55 5.3 S 19 28 10 15 - - 0.0
19/01:30pm 21.4 19.2 12.0 55 5.3 SSE 15 30 8 16 - - 0.0
19/01:00pm 21.8 19.0 12.6 56 5.2 SSW 19 28 10 15 - - 0.0
19/12:30pm 21.9 18.8 11.6 52 5.7 SSW 19 28 10 15 - - 0.0
19/12:00pm 22.4 20.5 14.3 60 4.7 S 17 32 9 17 - - 0.0
19/11:30am 22.0 20.1 14.1 61 4.6 SSE 17 26 9 14 - - 0.0
19/11:00am 21.2 18.8 12.6 58 4.9 SSE 17 28 9 15 - - 0.0
19/10:30am 21.0 18.2 13.2 61 4.5 SSW 20 32 11 17 - - 0.0
19/10:00am 21.3 19.1 13.2 60 4.6 S 17 30 9 16 - - 0.0
19/09:30am 21.0 18.3 13.4 62 4.4 SSW 20 30 11 16 - - 0.0
19/09:00am 20.2 17.3 13.9 67 3.6 SSW 22 33 12 18 - - 0.4
19/08:30am 20.2 16.4 13.6 66 3.8 SSW 26 41 14 22 - - 0.4
19/08:00am 20.3 17.9 14.4 69 3.4 S 20 39 11 21 - - 0.4
19/07:30am 19.7 17.5 14.9 74 2.8 S 20 33 11 18 - - 0.4
19/07:00am 19.4 18.0 15.5 78 2.3 SSW 17 30 9 16 - - 0.4
19/06:30am 19.0 17.7 15.7 81 2.0 SSW 17 33 9 18 - - 0.4
19/06:00am 18.8 17.5 15.9 83 1.7 S 17 32 9 17 - - 0.4
19/05:30am 19.0 17.7 15.9 82 1.8 S 17 28 9 15 - - 0.4
19/05:00am 19.4 20.7 17.5 89 1.2 NNW 7 11 4 6 - - 0.4
19/04:30am 19.8 22.0 18.3 91 0.9 WNW 4 11 2 6 - - 0.4
19/04:00am 20.6 22.8 19.3 92 0.8 SW 6 13 3 7 - - 0.4
19/03:30am 20.4 22.3 19.7 96 0.4 W 9 19 5 10 - - 0.4
19/03:00am 18.2 20.5 17.6 96 0.4 SSW 2 6 1 3 - - 0.4
19/02:30am 18.1 20.7 17.6 97 0.3 CALM 0 0 0 0 - - 0.4
19/02:00am 18.2 20.8 17.6 96 0.4 CALM 0 0 0 0 - - 0.4
19/01:30am 18.4 21.0 17.6 95 0.5 CALM 0 0 0 0 - - 0.4
19/01:00am 18.9 21.7 17.9 94 0.6 CALM 0 0 0 0 - - 0.4
19/12:30am 19.8 23.1 19.1 96 0.4 CALM 0 0 0 0 - - 0.4
19/12:00am 19.9 23.1 18.9 94 0.6 CALM 0 0 0 0 - - 0.4
 
Date/Time
EDT
Tmp

°C
App
Tmp
°C
Dew
Point
°C
Rel
Hum
%
Delta-T

°C
Wind Press
QNH
hPa
Press
MSL
hPa
Rain
since
9 am
mm
Dir
 
Spd
km/h
Gust
km/h
Spd
kts
Gust
kts
18/11:30pm 20.3 23.0 19.5 95 0.5 NE 4 6 2 3 - - 0.4
18/11:00pm 20.4 23.7 19.2 93 0.8 CALM 0 2 0 1 - - 0.4
18/10:30pm 20.7 24.1 19.4 92 0.8 CALM 0 4 0 2 - - 0.4
18/10:00pm 21.2 24.8 19.7 91 1.0 CALM 0 0 0 0 - - 0.4
18/09:30pm 21.6 24.9 19.9 90 1.1 E 2 4 1 2 - - 0.4
18/09:00pm 22.0 24.7 20.3 90 1.1 E 6 9 3 5 - - 0.4

Latest Capital City Observations: Canberra | Sydney | Melbourne | Brisbane | Adelaide | Perth | Hobart | Darwin

Other Formats:

Comma delimited format used in spreadsheet applications
http://www.bom.gov.au/fwo/IDN60901/IDN60901.94782.axf

JavaScript Object Notation format (JSON) in row-major order
http://www.bom.gov.au/fwo/IDN60901/IDN60901.94782.json